sensor_id;sensor_type;location;lat;lon;timestamp;P1;durP1;ratioP1;P2;durP2;ratioP2
35462;SDS011;21578;47.892;9.970;2022-12-29T08:28:49;0.80;;;0.40;;
35462;SDS011;21578;47.892;9.970;2022-12-29T08:33:39;0.30;;;0.30;;
35462;SDS011;21578;47.892;9.970;2022-12-29T08:38:27;0.83;;;0.40;;
35462;SDS011;21578;47.892;9.970;2022-12-29T08:43:16;0.50;;;0.30;;
35462;SDS011;21578;47.892;9.970;2022-12-29T08:48:03;0.53;;;0.37;;
35462;SDS011;21578;47.892;9.970;2022-12-29T08:52:51;0.27;;;0.27;;
35462;SDS011;21578;47.892;9.970;2022-12-29T08:57:38;1.23;;;0.37;;
35462;SDS011;21578;47.892;9.970;2022-12-29T09:02:26;0.43;;;0.30;;
35462;SDS011;21578;47.892;9.970;2022-12-29T09:07:13;1.50;;;0.40;;
35462;SDS011;21578;47.892;9.970;2022-12-29T09:12:00;2.63;;;0.37;;
35462;SDS011;21578;47.892;9.970;2022-12-29T09:16:47;0.70;;;0.40;;
35462;SDS011;21578;47.892;9.970;2022-12-29T09:21:56;1.30;;;0.40;;
35462;SDS011;21578;47.892;9.970;2022-12-29T09:26:43;0.73;;;0.30;;
35462;SDS011;21578;47.892;9.970;2022-12-29T09:31:30;0.63;;;0.60;;
35462;SDS011;21578;47.892;9.970;2022-12-29T09:36:17;0.87;;;0.40;;
35462;SDS011;21578;47.892;9.970;2022-12-29T09:41:06;1.00;;;0.40;;
35462;SDS011;21578;47.892;9.970;2022-12-29T09:46:03;0.67;;;0.40;;
35462;SDS011;21578;47.892;9.970;2022-12-29T09:50:59;0.67;;;0.47;;
35462;SDS011;21578;47.892;9.970;2022-12-29T09:55:48;0.93;;;0.50;;
35462;SDS011;21578;47.892;9.970;2022-12-29T10:00:40;0.83;;;0.50;;
35462;SDS011;21578;47.892;9.970;2022-12-29T10:05:35;0.47;;;0.40;;
35462;SDS011;21578;47.892;9.970;2022-12-29T10:10:29;0.93;;;0.40;;
35462;SDS011;21578;47.892;9.970;2022-12-29T10:15:26;0.60;;;0.43;;
35462;SDS011;21578;47.892;9.970;2022-12-29T10:20:26;0.53;;;0.53;;
35462;SDS011;21578;47.892;9.970;2022-12-29T10:25:18;0.50;;;0.50;;
35462;SDS011;21578;47.892;9.970;2022-12-29T10:30:10;0.50;;;0.40;;
35462;SDS011;21578;47.892;9.970;2022-12-29T10:35:00;0.40;;;0.40;;
35462;SDS011;21578;47.892;9.970;2022-12-29T10:39:57;0.47;;;0.47;;
35462;SDS011;21578;47.892;9.970;2022-12-29T10:44:45;0.80;;;0.30;;
35462;SDS011;21578;47.892;9.970;2022-12-29T10:49:34;0.30;;;0.30;;
35462;SDS011;21578;47.892;9.970;2022-12-29T10:54:27;0.40;;;0.40;;
35462;SDS011;21578;47.892;9.970;2022-12-29T10:59:20;0.50;;;0.47;;
35462;SDS011;21578;47.892;9.970;2022-12-29T11:04:15;1.40;;;0.50;;
35462;SDS011;21578;47.892;9.970;2022-12-29T11:09:15;0.60;;;0.50;;
35462;SDS011;21578;47.892;9.970;2022-12-29T11:14:11;0.93;;;0.40;;
35462;SDS011;21578;47.892;9.970;2022-12-29T11:19:01;0.43;;;0.30;;
35462;SDS011;21578;47.892;9.970;2022-12-29T11:23:57;0.90;;;0.60;;
35462;SDS011;21578;47.892;9.970;2022-12-29T11:28:46;0.40;;;0.30;;
35462;SDS011;21578;47.892;9.970;2022-12-29T11:33:49;0.30;;;0.30;;
35462;SDS011;21578;47.892;9.970;2022-12-29T11:38:38;0.87;;;0.40;;
35462;SDS011;21578;47.892;9.970;2022-12-29T11:43:29;0.97;;;0.40;;
35462;SDS011;21578;47.892;9.970;2022-12-29T11:48:19;0.50;;;0.50;;
35462;SDS011;21578;47.892;9.970;2022-12-29T11:53:13;1.00;;;0.43;;
35462;SDS011;21578;47.892;9.970;2022-12-29T11:58:11;0.40;;;0.30;;
35462;SDS011;21578;47.892;9.970;2022-12-29T12:03:02;1.80;;;0.40;;
35462;SDS011;21578;47.892;9.970;2022-12-29T12:07:52;0.53;;;0.37;;
35462;SDS011;21578;47.892;9.970;2022-12-29T12:12:44;0.40;;;0.40;;
35462;SDS011;21578;47.892;9.970;2022-12-29T12:17:40;0.30;;;0.30;;
35462;SDS011;21578;47.892;9.970;2022-12-29T12:22:36;1.07;;;0.40;;
35462;SDS011;21578;47.892;9.970;2022-12-29T12:27:28;0.87;;;0.47;;
35462;SDS011;21578;47.892;9.970;2022-12-29T12:32:26;0.50;;;0.40;;
35462;SDS011;21578;47.892;9.970;2022-12-29T12:42:45;3.57;;;0.50;;
35462;SDS011;21578;47.892;9.970;2022-12-29T12:47:50;0.50;;;0.40;;
35462;SDS011;21578;47.892;9.970;2022-12-29T12:52:52;0.60;;;0.40;;
35462;SDS011;21578;47.892;9.970;2022-12-29T12:58:06;0.97;;;0.50;;
35462;SDS011;21578;47.892;9.970;2022-12-29T13:03:04;1.13;;;0.40;;
35462;SDS011;21578;47.892;9.970;2022-12-29T13:08:00;1.20;;;0.40;;
35462;SDS011;21578;47.892;9.970;2022-12-29T13:13:10;0.90;;;0.50;;
35462;SDS011;21578;47.892;9.970;2022-12-29T13:18:18;1.10;;;0.30;;
35462;SDS011;21578;47.892;9.970;2022-12-29T13:23:13;1.97;;;0.30;;
35462;SDS011;21578;47.892;9.970;2022-12-29T13:28:12;0.90;;;0.50;;
35462;SDS011;21578;47.892;9.970;2022-12-29T13:33:06;1.17;;;0.40;;
35462;SDS011;21578;47.892;9.970;2022-12-29T13:38:07;0.40;;;0.33;;
35462;SDS011;21578;47.892;9.970;2022-12-29T13:42:58;0.87;;;0.33;;
35462;SDS011;21578;47.892;9.970;2022-12-29T13:47:49;0.97;;;0.33;;
35462;SDS011;21578;47.892;9.970;2022-12-29T13:52:43;0.53;;;0.40;;
35462;SDS011;21578;47.892;9.970;2022-12-29T13:57:37;1.20;;;0.43;;
35462;SDS011;21578;47.892;9.970;2022-12-29T14:02:31;0.40;;;0.30;;
35462;SDS011;21578;47.892;9.970;2022-12-29T14:07:28;0.67;;;0.40;;
35462;SDS011;21578;47.892;9.970;2022-12-29T14:12:25;0.47;;;0.40;;
35462;SDS011;21578;47.892;9.970;2022-12-29T14:17:17;55.00;;;39.20;;
35462;SDS011;21578;47.892;9.970;2022-12-29T14:22:07;357.70;;;177.07;;
35462;SDS011;21578;47.892;9.970;2022-12-29T14:26:57;582.30;;;270.83;;
35462;SDS011;21578;47.892;9.970;2022-12-29T14:31:45;999.30;;;581.20;;
35462;SDS011;21578;47.892;9.970;2022-12-29T14:36:33;633.17;;;380.93;;
35462;SDS011;21578;47.892;9.970;2022-12-29T14:41:26;62.47;;;37.70;;
35462;SDS011;21578;47.892;9.970;2022-12-29T14:46:17;1.20;;;1.00;;
35462;SDS011;21578;47.892;9.970;2022-12-29T14:51:17;1.03;;;0.70;;
35462;SDS011;21578;47.892;9.970;2022-12-29T14:56:17;0.50;;;0.43;;
35462;SDS011;21578;47.892;9.970;2022-12-29T15:01:12;1.23;;;0.50;;
35462;SDS011;21578;47.892;9.970;2022-12-29T15:06:06;0.60;;;0.57;;
35462;SDS011;21578;47.892;9.970;2022-12-29T15:10:57;1.10;;;0.70;;
35462;SDS011;21578;47.892;9.970;2022-12-29T15:15:47;54.33;;;38.30;;
35462;SDS011;21578;47.892;9.970;2022-12-29T15:20:36;184.13;;;98.30;;
35462;SDS011;21578;47.892;9.970;2022-12-29T15:25:23;293.03;;;160.97;;
35462;SDS011;21578;47.892;9.970;2022-12-29T15:30:12;200.80;;;126.07;;
35462;SDS011;21578;47.892;9.970;2022-12-29T15:34:59;29.40;;;21.33;;
35462;SDS011;21578;47.892;9.970;2022-12-29T15:40:20;4.43;;;3.20;;
35462;SDS011;21578;47.892;9.970;2022-12-29T15:45:09;2.37;;;2.20;;
35462;SDS011;21578;47.892;9.970;2022-12-29T15:49:59;1.30;;;1.20;;
35462;SDS011;21578;47.892;9.970;2022-12-29T15:54:50;29.90;;;23.70;;
35462;SDS011;21578;47.892;9.970;2022-12-29T15:59:46;90.60;;;81.93;;
35462;SDS011;21578;47.892;9.970;2022-12-29T16:04:33;56.47;;;50.37;;
35462;SDS011;21578;47.892;9.970;2022-12-29T16:09:28;120.40;;;81.13;;
35462;SDS011;21578;47.892;9.970;2022-12-29T16:14:18;147.10;;;88.90;;
35462;SDS011;21578;47.892;9.970;2022-12-29T16:19:11;4.67;;;4.10;;
35462;SDS011;21578;47.892;9.970;2022-12-29T16:24:01;3.80;;;3.50;;
35462;SDS011;21578;47.892;9.970;2022-12-29T16:28:54;2.73;;;1.77;;
35462;SDS011;21578;47.892;9.970;2022-12-29T16:33:44;1.50;;;0.80;;
35462;SDS011;21578;47.892;9.970;2022-12-29T16:38:34;1.13;;;0.90;;
35462;SDS011;21578;47.892;9.970;2022-12-29T16:43:22;1.33;;;1.30;;
35462;SDS011;21578;47.892;9.970;2022-12-29T16:48:15;1.90;;;0.90;;
35462;SDS011;21578;47.892;9.970;2022-12-29T16:53:05;1.03;;;0.73;;
35462;SDS011;21578;47.892;9.970;2022-12-29T16:58:05;3.07;;;2.40;;
35462;SDS011;21578;47.892;9.970;2022-12-29T17:03:03;2.00;;;0.90;;
35462;SDS011;21578;47.892;9.970;2022-12-29T17:07:50;6.33;;;5.03;;
35462;SDS011;21578;47.892;9.970;2022-12-29T17:12:37;127.47;;;87.67;;
35462;SDS011;21578;47.892;9.970;2022-12-29T17:17:30;172.30;;;106.60;;
35462;SDS011;21578;47.892;9.970;2022-12-29T17:22:19;57.57;;;43.70;;
35462;SDS011;21578;47.892;9.970;2022-12-29T17:27:12;8.13;;;7.43;;
35462;SDS011;21578;47.892;9.970;2022-12-29T17:32:09;3.20;;;3.00;;
35462;SDS011;21578;47.892;9.970;2022-12-29T17:37:01;3.03;;;2.57;;
35462;SDS011;21578;47.892;9.970;2022-12-29T17:41:48;84.33;;;75.47;;
35462;SDS011;21578;47.892;9.970;2022-12-29T17:46:35;10.47;;;9.60;;
35462;SDS011;21578;47.892;9.970;2022-12-29T17:51:22;5.67;;;5.17;;
35462;SDS011;21578;47.892;9.970;2022-12-29T17:56:11;2.63;;;1.93;;
35462;SDS011;21578;47.892;9.970;2022-12-29T18:00:59;1.20;;;1.10;;
35462;SDS011;21578;47.892;9.970;2022-12-29T18:05:47;1.13;;;1.13;;
35462;SDS011;21578;47.892;9.970;2022-12-29T18:10:35;1.20;;;1.00;;
35462;SDS011;21578;47.892;9.970;2022-12-29T18:15:24;1.73;;;1.07;;
35462;SDS011;21578;47.892;9.970;2022-12-29T18:20:12;1.40;;;1.20;;
35462;SDS011;21578;47.892;9.970;2022-12-29T18:25:00;1.40;;;1.30;;
35462;SDS011;21578;47.892;9.970;2022-12-29T18:29:48;0.90;;;0.90;;
35462;SDS011;21578;47.892;9.970;2022-12-29T18:34:37;1.30;;;1.20;;
35462;SDS011;21578;47.892;9.970;2022-12-29T18:39:24;1.23;;;0.50;;
35462;SDS011;21578;47.892;9.970;2022-12-29T18:44:11;7.57;;;6.97;;
35462;SDS011;21578;47.892;9.970;2022-12-29T18:48:59;20.33;;;18.43;;
35462;SDS011;21578;47.892;9.970;2022-12-29T18:53:47;21.70;;;19.73;;
35462;SDS011;21578;47.892;9.970;2022-12-29T18:58:34;172.37;;;142.60;;
35462;SDS011;21578;47.892;9.970;2022-12-29T19:03:22;49.10;;;45.13;;
35462;SDS011;21578;47.892;9.970;2022-12-29T19:08:12;2.23;;;1.40;;
35462;SDS011;21578;47.892;9.970;2022-12-29T19:13:01;0.40;;;0.40;;
35462;SDS011;21578;47.892;9.970;2022-12-29T19:17:48;0.83;;;0.83;;
35462;SDS011;21578;47.892;9.970;2022-12-29T19:22:35;0.73;;;0.57;;
35462;SDS011;21578;47.892;9.970;2022-12-29T19:27:22;2.27;;;1.67;;
35462;SDS011;21578;47.892;9.970;2022-12-29T19:32:11;5.17;;;4.87;;
35462;SDS011;21578;47.892;9.970;2022-12-29T19:36:58;16.47;;;15.37;;
35462;SDS011;21578;47.892;9.970;2022-12-29T19:41:45;1.43;;;1.00;;
35462;SDS011;21578;47.892;9.970;2022-12-29T19:46:32;4.77;;;3.70;;
35462;SDS011;21578;47.892;9.970;2022-12-29T19:51:21;2.50;;;1.63;;
35462;SDS011;21578;47.892;9.970;2022-12-29T19:56:08;1.90;;;1.80;;
35462;SDS011;21578;47.892;9.970;2022-12-29T20:01:01;1.23;;;0.80;;
35462;SDS011;21578;47.892;9.970;2022-12-29T20:05:50;1.47;;;0.80;;
35462;SDS011;21578;47.892;9.970;2022-12-29T20:10:38;0.63;;;0.50;;
35462;SDS011;21578;47.892;9.970;2022-12-29T20:15:25;0.60;;;0.60;;
35462;SDS011;21578;47.892;9.970;2022-12-29T20:20:12;0.60;;;0.40;;
35462;SDS011;21578;47.892;9.970;2022-12-29T20:24:59;0.50;;;0.50;;
35462;SDS011;21578;47.892;9.970;2022-12-29T20:29:48;0.73;;;0.40;;
35462;SDS011;21578;47.892;9.970;2022-12-29T20:34:35;0.40;;;0.30;;
35462;SDS011;21578;47.892;9.970;2022-12-29T20:39:22;10.90;;;10.10;;
35462;SDS011;21578;47.892;9.970;2022-12-29T20:44:08;25.20;;;23.53;;
35462;SDS011;21578;47.892;9.970;2022-12-29T20:48:57;0.93;;;0.93;;
35462;SDS011;21578;47.892;9.970;2022-12-29T20:53:44;1.03;;;0.90;;
35462;SDS011;21578;47.892;9.970;2022-12-29T20:58:32;23.57;;;17.40;;
35462;SDS011;21578;47.892;9.970;2022-12-29T21:03:19;59.27;;;53.80;;
35462;SDS011;21578;47.892;9.970;2022-12-29T21:08:07;12.53;;;11.63;;
35462;SDS011;21578;47.892;9.970;2022-12-29T21:12:55;1.70;;;1.60;;
35462;SDS011;21578;47.892;9.970;2022-12-29T21:17:42;1.73;;;0.90;;
35462;SDS011;21578;47.892;9.970;2022-12-29T21:22:29;0.70;;;0.67;;
35462;SDS011;21578;47.892;9.970;2022-12-29T21:27:18;1.10;;;0.93;;
35462;SDS011;21578;47.892;9.970;2022-12-29T21:32:05;0.60;;;0.60;;
35462;SDS011;21578;47.892;9.970;2022-12-29T21:36:51;0.73;;;0.63;;
35462;SDS011;21578;47.892;9.970;2022-12-29T21:41:38;1.60;;;1.40;;
35462;SDS011;21578;47.892;9.970;2022-12-29T21:46:27;1.40;;;1.20;;
35462;SDS011;21578;47.892;9.970;2022-12-29T21:51:13;0.90;;;0.90;;
35462;SDS011;21578;47.892;9.970;2022-12-29T21:56:18;1.40;;;0.93;;
35462;SDS011;21578;47.892;9.970;2022-12-29T22:01:06;2.07;;;0.80;;
35462;SDS011;21578;47.892;9.970;2022-12-29T22:06:16;0.93;;;0.80;;
35462;SDS011;21578;47.892;9.970;2022-12-29T22:11:20;2.30;;;1.80;;
35462;SDS011;21578;47.892;9.970;2022-12-29T22:16:25;1.63;;;1.13;;
35462;SDS011;21578;47.892;9.970;2022-12-29T22:21:12;2.80;;;2.23;;
35462;SDS011;21578;47.892;9.970;2022-12-29T22:26:03;2.80;;;2.63;;
35462;SDS011;21578;47.892;9.970;2022-12-29T22:30:50;3.07;;;2.87;;
35462;SDS011;21578;47.892;9.970;2022-12-29T22:35:37;1.87;;;1.10;;
35462;SDS011;21578;47.892;9.970;2022-12-29T22:40:24;2.23;;;2.10;;
35462;SDS011;21578;47.892;9.970;2022-12-29T22:45:12;1.60;;;1.50;;
35462;SDS011;21578;47.892;9.970;2022-12-29T22:49:59;1.20;;;1.10;;
35462;SDS011;21578;47.892;9.970;2022-12-29T22:54:46;0.53;;;0.40;;
35462;SDS011;21578;47.892;9.970;2022-12-29T22:59:33;0.50;;;0.50;;
35462;SDS011;21578;47.892;9.970;2022-12-29T23:04:21;0.70;;;0.40;;
35462;SDS011;21578;47.892;9.970;2022-12-29T23:09:09;0.83;;;0.30;;
35462;SDS011;21578;47.892;9.970;2022-12-29T23:14:00;0.60;;;0.30;;
35462;SDS011;21578;47.892;9.970;2022-12-29T23:18:48;0.60;;;0.60;;
35462;SDS011;21578;47.892;9.970;2022-12-29T23:23:37;1.90;;;0.60;;
35462;SDS011;21578;47.892;9.970;2022-12-29T23:28:40;0.60;;;0.60;;
35462;SDS011;21578;47.892;9.970;2022-12-29T23:33:28;0.23;;;0.23;;
35462;SDS011;21578;47.892;9.970;2022-12-29T23:38:15;1.90;;;0.40;;
35462;SDS011;21578;47.892;9.970;2022-12-29T23:43:05;0.70;;;0.70;;
35462;SDS011;21578;47.892;9.970;2022-12-29T23:47:51;0.87;;;0.30;;
35462;SDS011;21578;47.892;9.970;2022-12-29T23:52:38;0.77;;;0.20;;
35462;SDS011;21578;47.892;9.970;2022-12-29T23:57:25;0.30;;;0.20;;
